sensor_id;sensor_type;location;lat;lon;timestamp;P1;durP1;ratioP1;P2;durP2;ratioP2
66707;SDS011;53622;0.000;0.000;2023-04-03T00:01:40;0.13;;;0.13;;
66707;SDS011;53622;0.000;0.000;2023-04-03T00:04:09;0.30;;;0.30;;
66707;SDS011;53622;0.000;0.000;2023-04-03T00:06:38;0.40;;;0.40;;
66707;SDS011;53622;0.000;0.000;2023-04-03T00:09:08;0.10;;;0.10;;
66707;SDS011;53622;0.000;0.000;2023-04-03T00:11:37;0.22;;;0.20;;
66707;SDS011;53622;0.000;0.000;2023-04-03T00:14:06;0.20;;;0.20;;
66707;SDS011;53622;0.000;0.000;2023-04-03T00:16:35;0.20;;;0.20;;
66707;SDS011;53622;0.000;0.000;2023-04-03T00:19:06;0.40;;;0.20;;
66707;SDS011;53622;0.000;0.000;2023-04-03T00:21:35;1.58;;;0.30;;
66707;SDS011;53622;0.000;0.000;2023-04-03T00:24:05;0.40;;;0.20;;
66707;SDS011;53622;0.000;0.000;2023-04-03T00:26:35;0.68;;;0.30;;
66707;SDS011;53622;0.000;0.000;2023-04-03T00:29:04;0.98;;;0.30;;
66707;SDS011;53622;0.000;0.000;2023-04-03T00:31:33;1.48;;;0.30;;
66707;SDS011;53622;0.000;0.000;2023-04-03T00:34:02;0.40;;;0.30;;
66707;SDS011;53622;0.000;0.000;2023-04-03T00:36:33;0.20;;;0.20;;
66707;SDS011;53622;0.000;0.000;2023-04-03T00:39:02;0.30;;;0.30;;
66707;SDS011;53622;0.000;0.000;2023-04-03T00:41:33;0.20;;;0.20;;
66707;SDS011;53622;0.000;0.000;2023-04-03T00:44:18;0.20;;;0.20;;
66707;SDS011;53622;0.000;0.000;2023-04-03T00:46:48;0.30;;;0.30;;
66707;SDS011;53622;0.000;0.000;2023-04-03T00:49:18;3.03;;;0.38;;
66707;SDS011;53622;0.000;0.000;2023-04-03T00:51:49;2.63;;;0.30;;
66707;SDS011;53622;0.000;0.000;2023-04-03T00:54:18;1.63;;;0.35;;
66707;SDS011;53622;0.000;0.000;2023-04-03T00:56:48;1.08;;;0.45;;
66707;SDS011;53622;0.000;0.000;2023-04-03T00:59:20;1.77;;;0.45;;
66707;SDS011;53622;0.000;0.000;2023-04-03T01:01:54;0.88;;;0.30;;
66707;SDS011;53622;0.000;0.000;2023-04-03T01:04:26;1.02;;;0.10;;
66707;SDS011;53622;0.000;0.000;2023-04-03T01:06:59;0.60;;;0.52;;
66707;SDS011;53622;0.000;0.000;2023-04-03T01:09:32;0.47;;;0.20;;
66707;SDS011;53622;0.000;0.000;2023-04-03T01:12:13;1.65;;;0.25;;
66707;SDS011;53622;0.000;0.000;2023-04-03T01:14:46;0.10;;;0.10;;
66707;SDS011;53622;0.000;0.000;2023-04-03T01:17:26;0.32;;;0.32;;
66707;SDS011;53622;0.000;0.000;2023-04-03T01:20:02;0.20;;;0.20;;
66707;SDS011;53622;0.000;0.000;2023-04-03T01:23:02;0.20;;;0.20;;
66707;SDS011;53622;0.000;0.000;2023-04-03T01:25:41;0.55;;;0.20;;
66707;SDS011;53622;0.000;0.000;2023-04-03T01:28:15;0.25;;;0.25;;
66707;SDS011;53622;0.000;0.000;2023-04-03T01:30:47;0.43;;;0.30;;
66707;SDS011;53622;0.000;0.000;2023-04-03T01:33:23;0.32;;;0.25;;
66707;SDS011;53622;0.000;0.000;2023-04-03T01:35:52;0.22;;;0.22;;
66707;SDS011;53622;0.000;0.000;2023-04-03T01:38:22;0.20;;;0.20;;
66707;SDS011;53622;0.000;0.000;2023-04-03T01:40:52;1.45;;;0.30;;
66707;SDS011;53622;0.000;0.000;2023-04-03T01:43:21;1.33;;;0.40;;
66707;SDS011;53622;0.000;0.000;2023-04-03T01:45:51;0.52;;;0.28;;
66707;SDS011;53622;0.000;0.000;2023-04-03T01:48:23;0.30;;;0.10;;
66707;SDS011;53622;0.000;0.000;2023-04-03T01:50:53;1.23;;;0.30;;
66707;SDS011;53622;0.000;0.000;2023-04-03T01:53:23;2.50;;;0.38;;
66707;SDS011;53622;0.000;0.000;2023-04-03T01:55:53;1.48;;;0.20;;
66707;SDS011;53622;0.000;0.000;2023-04-03T01:58:22;0.40;;;0.20;;
66707;SDS011;53622;0.000;0.000;2023-04-03T02:00:53;0.30;;;0.30;;
66707;SDS011;53622;0.000;0.000;2023-04-03T02:03:24;0.20;;;0.20;;
66707;SDS011;53622;0.000;0.000;2023-04-03T02:05:53;0.75;;;0.30;;
66707;SDS011;53622;0.000;0.000;2023-04-03T02:08:23;0.30;;;0.30;;
66707;SDS011;53622;0.000;0.000;2023-04-03T02:10:52;0.17;;;0.17;;
66707;SDS011;53622;0.000;0.000;2023-04-03T02:13:22;0.20;;;0.20;;
66707;SDS011;53622;0.000;0.000;2023-04-03T02:15:51;0.20;;;0.20;;
66707;SDS011;53622;0.000;0.000;2023-04-03T02:18:20;0.60;;;0.20;;
66707;SDS011;53622;0.000;0.000;2023-04-03T02:20:51;0.30;;;0.30;;
66707;SDS011;53622;0.000;0.000;2023-04-03T02:23:20;0.10;;;0.10;;
66707;SDS011;53622;0.000;0.000;2023-04-03T02:25:50;0.10;;;0.10;;
66707;SDS011;53622;0.000;0.000;2023-04-03T02:28:19;0.28;;;0.28;;
66707;SDS011;53622;0.000;0.000;2023-04-03T02:30:48;0.20;;;0.20;;
66707;SDS011;53622;0.000;0.000;2023-04-03T02:33:18;0.60;;;0.28;;
66707;SDS011;53622;0.000;0.000;2023-04-03T02:35:53;0.38;;;0.30;;
66707;SDS011;53622;0.000;0.000;2023-04-03T02:38:23;0.30;;;0.30;;
66707;SDS011;53622;0.000;0.000;2023-04-03T02:40:59;0.98;;;0.43;;
66707;SDS011;53622;0.000;0.000;2023-04-03T02:43:30;0.30;;;0.30;;
66707;SDS011;53622;0.000;0.000;2023-04-03T02:46:00;0.20;;;0.13;;
66707;SDS011;53622;0.000;0.000;2023-04-03T02:48:29;0.30;;;0.30;;
66707;SDS011;53622;0.000;0.000;2023-04-03T02:51:00;0.20;;;0.20;;
66707;SDS011;53622;0.000;0.000;2023-04-03T02:53:30;0.60;;;0.25;;
66707;SDS011;53622;0.000;0.000;2023-04-03T02:56:05;0.25;;;0.20;;
66707;SDS011;53622;0.000;0.000;2023-04-03T02:58:34;0.13;;;0.13;;
66707;SDS011;53622;0.000;0.000;2023-04-03T03:01:05;1.48;;;0.20;;
66707;SDS011;53622;0.000;0.000;2023-04-03T03:03:34;0.40;;;0.20;;
66707;SDS011;53622;0.000;0.000;2023-04-03T03:06:06;0.32;;;0.32;;
66707;SDS011;53622;0.000;0.000;2023-04-03T03:08:36;0.32;;;0.20;;
66707;SDS011;53622;0.000;0.000;2023-04-03T03:11:06;0.30;;;0.20;;
66707;SDS011;53622;0.000;0.000;2023-04-03T03:13:35;0.17;;;0.17;;
66707;SDS011;53622;0.000;0.000;2023-04-03T03:16:05;0.22;;;0.20;;
66707;SDS011;53622;0.000;0.000;2023-04-03T03:18:35;0.22;;;0.10;;
66707;SDS011;53622;0.000;0.000;2023-04-03T03:21:05;0.20;;;0.20;;
66707;SDS011;53622;0.000;0.000;2023-04-03T03:23:35;0.25;;;0.20;;
66707;SDS011;53622;0.000;0.000;2023-04-03T03:26:06;0.10;;;0.10;;
66707;SDS011;53622;0.000;0.000;2023-04-03T03:28:37;0.63;;;0.30;;
66707;SDS011;53622;0.000;0.000;2023-04-03T03:31:08;0.10;;;0.10;;
66707;SDS011;53622;0.000;0.000;2023-04-03T03:33:40;2.03;;;0.40;;
66707;SDS011;53622;0.000;0.000;2023-04-03T03:36:11;0.95;;;0.30;;
66707;SDS011;53622;0.000;0.000;2023-04-03T03:38:40;0.20;;;0.20;;
66707;SDS011;53622;0.000;0.000;2023-04-03T03:41:09;0.45;;;0.30;;
66707;SDS011;53622;0.000;0.000;2023-04-03T03:43:41;0.85;;;0.22;;
66707;SDS011;53622;0.000;0.000;2023-04-03T03:46:13;0.17;;;0.17;;
66707;SDS011;53622;0.000;0.000;2023-04-03T03:48:43;2.38;;;0.20;;
66707;SDS011;53622;0.000;0.000;2023-04-03T03:51:14;0.30;;;0.13;;
66707;SDS011;53622;0.000;0.000;2023-04-03T03:53:43;0.75;;;0.20;;
66707;SDS011;53622;0.000;0.000;2023-04-03T03:56:16;0.50;;;0.30;;
66707;SDS011;53622;0.000;0.000;2023-04-03T03:58:46;0.30;;;0.30;;
66707;SDS011;53622;0.000;0.000;2023-04-03T04:01:16;0.28;;;0.28;;
66707;SDS011;53622;0.000;0.000;2023-04-03T04:03:48;0.57;;;0.20;;
66707;SDS011;53622;0.000;0.000;2023-04-03T04:06:22;0.20;;;0.20;;
66707;SDS011;53622;0.000;0.000;2023-04-03T04:08:53;1.00;;;0.30;;
66707;SDS011;53622;0.000;0.000;2023-04-03T04:11:22;0.20;;;0.20;;
66707;SDS011;53622;0.000;0.000;2023-04-03T04:13:53;0.43;;;0.30;;
66707;SDS011;53622;0.000;0.000;2023-04-03T04:16:26;0.10;;;0.10;;
66707;SDS011;53622;0.000;0.000;2023-04-03T04:19:00;0.30;;;0.20;;
66707;SDS011;53622;0.000;0.000;2023-04-03T04:21:32;0.20;;;0.20;;
66707;SDS011;53622;0.000;0.000;2023-04-03T04:24:01;0.20;;;0.20;;
66707;SDS011;53622;0.000;0.000;2023-04-03T04:26:30;0.22;;;0.22;;
66707;SDS011;53622;0.000;0.000;2023-04-03T04:29:00;0.10;;;0.10;;
66707;SDS011;53622;0.000;0.000;2023-04-03T04:31:32;0.20;;;0.20;;
66707;SDS011;53622;0.000;0.000;2023-04-03T04:34:02;0.10;;;0.10;;
66707;SDS011;53622;0.000;0.000;2023-04-03T04:36:32;0.10;;;0.10;;
66707;SDS011;53622;0.000;0.000;2023-04-03T04:39:02;0.70;;;0.20;;
66707;SDS011;53622;0.000;0.000;2023-04-03T04:41:32;0.40;;;0.20;;
66707;SDS011;53622;0.000;0.000;2023-04-03T04:44:03;0.68;;;0.20;;
66707;SDS011;53622;0.000;0.000;2023-04-03T04:46:33;0.10;;;0.10;;
66707;SDS011;53622;0.000;0.000;2023-04-03T04:49:03;0.90;;;0.20;;
66707;SDS011;53622;0.000;0.000;2023-04-03T04:51:35;0.43;;;0.20;;
66707;SDS011;53622;0.000;0.000;2023-04-03T04:54:20;1.35;;;0.10;;
66707;SDS011;53622;0.000;0.000;2023-04-03T04:56:51;0.20;;;0.20;;
66707;SDS011;53622;0.000;0.000;2023-04-03T04:59:20;0.22;;;0.22;;
66707;SDS011;53622;0.000;0.000;2023-04-03T05:01:51;0.20;;;0.20;;
66707;SDS011;53622;0.000;0.000;2023-04-03T05:04:21;0.25;;;0.20;;
66707;SDS011;53622;0.000;0.000;2023-04-03T05:06:56;0.75;;;0.20;;
66707;SDS011;53622;0.000;0.000;2023-04-03T05:09:28;0.20;;;0.13;;
66707;SDS011;53622;0.000;0.000;2023-04-03T05:11:58;0.20;;;0.20;;
66707;SDS011;53622;0.000;0.000;2023-04-03T05:14:31;0.50;;;0.20;;
66707;SDS011;53622;0.000;0.000;2023-04-03T05:17:05;0.60;;;0.20;;
66707;SDS011;53622;0.000;0.000;2023-04-03T05:19:38;0.10;;;0.10;;
66707;SDS011;53622;0.000;0.000;2023-04-03T05:22:10;0.30;;;0.30;;
66707;SDS011;53622;0.000;0.000;2023-04-03T05:24:39;0.30;;;0.22;;
66707;SDS011;53622;0.000;0.000;2023-04-03T05:27:09;0.40;;;0.15;;
66707;SDS011;53622;0.000;0.000;2023-04-03T05:29:43;0.30;;;0.20;;
66707;SDS011;53622;0.000;0.000;2023-04-03T05:32:17;0.10;;;0.10;;
66707;SDS011;53622;0.000;0.000;2023-04-03T05:34:51;1.95;;;0.30;;
66707;SDS011;53622;0.000;0.000;2023-04-03T05:37:21;0.38;;;0.30;;
66707;SDS011;53622;0.000;0.000;2023-04-03T05:39:52;0.75;;;0.20;;
66707;SDS011;53622;0.000;0.000;2023-04-03T05:42:22;1.17;;;0.25;;
66707;SDS011;53622;0.000;0.000;2023-04-03T05:44:51;1.40;;;0.20;;
66707;SDS011;53622;0.000;0.000;2023-04-03T05:47:20;1.10;;;0.30;;
66707;SDS011;53622;0.000;0.000;2023-04-03T05:49:50;0.20;;;0.20;;
66707;SDS011;53622;0.000;0.000;2023-04-03T05:52:20;0.28;;;0.10;;
66707;SDS011;53622;0.000;0.000;2023-04-03T05:54:53;1.10;;;0.10;;
66707;SDS011;53622;0.000;0.000;2023-04-03T05:57:26;0.88;;;0.15;;
66707;SDS011;53622;0.000;0.000;2023-04-03T05:59:55;0.22;;;0.17;;
66707;SDS011;53622;0.000;0.000;2023-04-03T06:02:25;0.60;;;0.15;;
66707;SDS011;53622;0.000;0.000;2023-04-03T06:04:54;0.22;;;0.20;;
66707;SDS011;53622;0.000;0.000;2023-04-03T06:07:25;1.25;;;0.15;;
66707;SDS011;53622;0.000;0.000;2023-04-03T06:09:56;0.20;;;0.20;;
66707;SDS011;53622;0.000;0.000;2023-04-03T06:12:26;0.30;;;0.25;;
66707;SDS011;53622;0.000;0.000;2023-04-03T06:14:56;2.05;;;0.30;;
66707;SDS011;53622;0.000;0.000;2023-04-03T06:17:26;0.55;;;0.10;;
66707;SDS011;53622;0.000;0.000;2023-04-03T06:19:55;0.10;;;0.10;;
66707;SDS011;53622;0.000;0.000;2023-04-03T06:22:27;0.20;;;0.20;;
66707;SDS011;53622;0.000;0.000;2023-04-03T06:24:58;0.30;;;0.10;;
66707;SDS011;53622;0.000;0.000;2023-04-03T06:27:27;1.90;;;0.28;;
66707;SDS011;53622;0.000;0.000;2023-04-03T06:29:56;0.30;;;0.20;;
66707;SDS011;53622;0.000;0.000;2023-04-03T06:32:25;0.20;;;0.20;;
66707;SDS011;53622;0.000;0.000;2023-04-03T06:34:55;2.05;;;0.35;;
66707;SDS011;53622;0.000;0.000;2023-04-03T06:37:26;5.20;;;0.65;;
66707;SDS011;53622;0.000;0.000;2023-04-03T06:39:56;0.77;;;0.30;;
66707;SDS011;53622;0.000;0.000;2023-04-03T06:42:25;0.22;;;0.22;;
66707;SDS011;53622;0.000;0.000;2023-04-03T06:45:06;2.78;;;0.30;;
66707;SDS011;53622;0.000;0.000;2023-04-03T06:47:38;1.85;;;0.30;;
66707;SDS011;53622;0.000;0.000;2023-04-03T06:50:08;4.75;;;0.52;;
66707;SDS011;53622;0.000;0.000;2023-04-03T06:52:40;1.67;;;0.30;;
66707;SDS011;53622;0.000;0.000;2023-04-03T06:55:11;4.45;;;0.30;;
66707;SDS011;53622;0.000;0.000;2023-04-03T06:57:40;1.52;;;0.20;;
66707;SDS011;53622;0.000;0.000;2023-04-03T07:00:10;2.25;;;0.30;;
66707;SDS011;53622;0.000;0.000;2023-04-03T07:02:40;1.73;;;0.30;;
66707;SDS011;53622;0.000;0.000;2023-04-03T07:05:09;2.97;;;0.30;;
66707;SDS011;53622;0.000;0.000;2023-04-03T07:07:40;0.45;;;0.20;;
66707;SDS011;53622;0.000;0.000;2023-04-03T07:10:10;0.30;;;0.20;;
66707;SDS011;53622;0.000;0.000;2023-04-03T07:12:39;3.30;;;0.20;;
66707;SDS011;53622;0.000;0.000;2023-04-03T07:15:09;1.45;;;0.35;;
66707;SDS011;53622;0.000;0.000;2023-04-03T07:17:40;1.65;;;0.20;;
66707;SDS011;53622;0.000;0.000;2023-04-03T07:20:09;0.20;;;0.15;;
66707;SDS011;53622;0.000;0.000;2023-04-03T07:22:41;0.82;;;0.20;;
66707;SDS011;53622;0.000;0.000;2023-04-03T07:25:10;1.50;;;0.30;;
66707;SDS011;53622;0.000;0.000;2023-04-03T07:27:39;0.20;;;0.20;;
66707;SDS011;53622;0.000;0.000;2023-04-03T07:30:09;0.43;;;0.20;;
66707;SDS011;53622;0.000;0.000;2023-04-03T07:32:41;0.70;;;0.20;;
66707;SDS011;53622;0.000;0.000;2023-04-03T07:35:11;0.55;;;0.28;;
66707;SDS011;53622;0.000;0.000;2023-04-03T07:37:42;0.50;;;0.20;;
66707;SDS011;53622;0.000;0.000;2023-04-03T07:40:12;0.55;;;0.20;;
66707;SDS011;53622;0.000;0.000;2023-04-03T07:42:41;1.58;;;0.30;;
66707;SDS011;53622;0.000;0.000;2023-04-03T07:45:11;1.85;;;0.20;;
66707;SDS011;53622;0.000;0.000;2023-04-03T07:47:41;0.45;;;0.30;;
66707;SDS011;53622;0.000;0.000;2023-04-03T07:50:11;2.47;;;0.30;;
66707;SDS011;53622;0.000;0.000;2023-04-03T07:52:41;0.40;;;0.20;;
66707;SDS011;53622;0.000;0.000;2023-04-03T07:55:11;0.20;;;0.20;;
66707;SDS011;53622;0.000;0.000;2023-04-03T07:57:41;0.40;;;0.30;;
66707;SDS011;53622;0.000;0.000;2023-04-03T08:00:11;0.32;;;0.25;;
66707;SDS011;53622;0.000;0.000;2023-04-03T08:02:41;3.25;;;0.40;;
66707;SDS011;53622;0.000;0.000;2023-04-03T08:05:12;1.45;;;0.20;;
66707;SDS011;53622;0.000;0.000;2023-04-03T08:07:43;3.38;;;0.30;;
66707;SDS011;53622;0.000;0.000;2023-04-03T08:10:12;0.38;;;0.20;;
66707;SDS011;53622;0.000;0.000;2023-04-03T08:12:45;1.40;;;0.20;;
66707;SDS011;53622;0.000;0.000;2023-04-03T08:15:15;2.58;;;0.28;;
66707;SDS011;53622;0.000;0.000;2023-04-03T08:17:45;2.17;;;0.40;;
66707;SDS011;53622;0.000;0.000;2023-04-03T08:20:14;1.10;;;0.30;;
66707;SDS011;53622;0.000;0.000;2023-04-03T08:22:46;0.57;;;0.20;;
66707;SDS011;53622;0.000;0.000;2023-04-03T08:25:21;2.72;;;0.63;;
66707;SDS011;53622;0.000;0.000;2023-04-03T08:28:00;2.35;;;0.30;;
66707;SDS011;53622;0.000;0.000;2023-04-03T08:30:30;1.88;;;0.35;;
66707;SDS011;53622;0.000;0.000;2023-04-03T08:33:05;1.35;;;0.50;;
66707;SDS011;53622;0.000;0.000;2023-04-03T08:35:49;3.40;;;0.68;;
66707;SDS011;53622;0.000;0.000;2023-04-03T08:38:20;1.98;;;0.40;;
66707;SDS011;53622;0.000;0.000;2023-04-03T08:40:59;1.50;;;0.50;;
66707;SDS011;53622;0.000;0.000;2023-04-03T08:43:31;1.70;;;0.40;;
66707;SDS011;53622;0.000;0.000;2023-04-03T08:46:10;0.30;;;0.20;;
66707;SDS011;53622;0.000;0.000;2023-04-03T08:48:43;3.67;;;0.35;;
66707;SDS011;53622;0.000;0.000;2023-04-03T08:51:13;1.15;;;0.40;;
66707;SDS011;53622;0.000;0.000;2023-04-03T08:53:47;0.85;;;0.30;;
66707;SDS011;53622;0.000;0.000;2023-04-03T08:56:23;2.17;;;0.40;;
66707;SDS011;53622;0.000;0.000;2023-04-03T08:58:55;1.48;;;0.30;;
66707;SDS011;53622;0.000;0.000;2023-04-03T09:01:27;1.80;;;0.30;;
66707;SDS011;53622;0.000;0.000;2023-04-03T09:04:05;2.47;;;0.40;;
66707;SDS011;53622;0.000;0.000;2023-04-03T09:06:48;0.73;;;0.30;;
66707;SDS011;53622;0.000;0.000;2023-04-03T09:09:44;0.93;;;0.32;;
66707;SDS011;53622;0.000;0.000;2023-04-03T09:12:18;2.10;;;0.30;;
66707;SDS011;53622;0.000;0.000;2023-04-03T09:14:56;0.68;;;0.28;;
66707;SDS011;53622;0.000;0.000;2023-04-03T09:17:35;1.55;;;0.50;;
66707;SDS011;53622;0.000;0.000;2023-04-03T09:20:16;0.38;;;0.20;;
66707;SDS011;53622;0.000;0.000;2023-04-03T09:22:58;2.90;;;0.30;;
66707;SDS011;53622;0.000;0.000;2023-04-03T09:25:34;1.38;;;0.50;;
66707;SDS011;53622;0.000;0.000;2023-04-03T09:28:23;3.38;;;0.32;;
66707;SDS011;53622;0.000;0.000;2023-04-03T09:34:42;1.85;;;0.50;;
66707;SDS011;53622;0.000;0.000;2023-04-03T09:37:12;4.35;;;0.43;;
66707;SDS011;53622;0.000;0.000;2023-04-03T09:49:45;1.55;;;0.28;;
66707;SDS011;53622;0.000;0.000;2023-04-03T09:52:22;2.60;;;0.43;;
66707;SDS011;53622;0.000;0.000;2023-04-03T09:54:53;1.48;;;0.43;;
66707;SDS011;53622;0.000;0.000;2023-04-03T09:57:28;2.15;;;0.52;;
66707;SDS011;53622;0.000;0.000;2023-04-03T10:04:06;1.75;;;0.40;;
66707;SDS011;53622;0.000;0.000;2023-04-03T10:06:40;0.60;;;0.30;;
66707;SDS011;53622;0.000;0.000;2023-04-03T10:09:16;1.25;;;0.30;;
66707;SDS011;53622;0.000;0.000;2023-04-03T10:14:37;0.30;;;0.22;;
66707;SDS011;53622;0.000;0.000;2023-04-03T10:17:14;1.23;;;0.50;;
66707;SDS011;53622;0.000;0.000;2023-04-03T10:20:07;0.68;;;0.68;;
66707;SDS011;53622;0.000;0.000;2023-04-03T10:22:54;2.35;;;0.95;;
66707;SDS011;53622;0.000;0.000;2023-04-03T10:25:31;1.40;;;0.68;;
66707;SDS011;53622;0.000;0.000;2023-04-03T10:28:07;1.67;;;0.80;;
66707;SDS011;53622;0.000;0.000;2023-04-03T10:30:46;2.75;;;0.88;;
66707;SDS011;53622;0.000;0.000;2023-04-03T10:33:27;2.20;;;0.98;;
66707;SDS011;53622;0.000;0.000;2023-04-03T10:36:11;3.00;;;1.20;;
66707;SDS011;53622;0.000;0.000;2023-04-03T10:38:51;3.28;;;1.17;;
66707;SDS011;53622;0.000;0.000;2023-04-03T10:41:29;3.42;;;0.90;;
66707;SDS011;53622;0.000;0.000;2023-04-03T10:44:11;3.50;;;0.80;;
66707;SDS011;53622;0.000;0.000;2023-04-03T10:46:46;1.65;;;0.70;;
66707;SDS011;53622;0.000;0.000;2023-04-03T10:49:21;3.20;;;0.70;;
66707;SDS011;53622;0.000;0.000;2023-04-03T10:52:00;2.00;;;1.10;;
66707;SDS011;53622;0.000;0.000;2023-04-03T10:54:38;3.40;;;0.60;;
66707;SDS011;53622;0.000;0.000;2023-04-03T10:57:12;4.10;;;0.80;;
66707;SDS011;53622;0.000;0.000;2023-04-03T10:59:43;4.68;;;0.80;;
66707;SDS011;53622;0.000;0.000;2023-04-03T11:02:17;2.50;;;0.70;;
66707;SDS011;53622;0.000;0.000;2023-04-03T11:04:56;2.20;;;0.70;;
66707;SDS011;53622;0.000;0.000;2023-04-03T11:07:32;4.60;;;1.25;;
66707;SDS011;53622;0.000;0.000;2023-04-03T11:10:12;6.85;;;1.77;;
66707;SDS011;53622;0.000;0.000;2023-04-03T11:12:44;11.77;;;2.95;;
66707;SDS011;53622;0.000;0.000;2023-04-03T11:15:18;7.20;;;2.35;;
66707;SDS011;53622;0.000;0.000;2023-04-03T11:17:51;8.55;;;2.20;;
66707;SDS011;53622;0.000;0.000;2023-04-03T11:20:24;8.95;;;2.63;;
66707;SDS011;53622;0.000;0.000;2023-04-03T11:23:00;11.60;;;2.55;;
66707;SDS011;53622;0.000;0.000;2023-04-03T11:25:33;8.98;;;1.88;;
66707;SDS011;53622;0.000;0.000;2023-04-03T11:28:11;8.75;;;2.30;;
66707;SDS011;53622;0.000;0.000;2023-04-03T11:30:44;5.57;;;1.77;;
66707;SDS011;53622;0.000;0.000;2023-04-03T11:33:25;4.13;;;1.50;;
66707;SDS011;53622;0.000;0.000;2023-04-03T11:36:25;6.45;;;1.90;;
66707;SDS011;53622;0.000;0.000;2023-04-03T11:39:02;5.00;;;1.58;;
66707;SDS011;53622;0.000;0.000;2023-04-03T11:41:42;5.38;;;1.52;;
66707;SDS011;53622;0.000;0.000;2023-04-03T11:44:26;4.43;;;1.75;;
66707;SDS011;53622;0.000;0.000;2023-04-03T11:47:03;3.83;;;1.50;;
66707;SDS011;53622;0.000;0.000;2023-04-03T11:55:44;5.40;;;1.20;;
66707;SDS011;53622;0.000;0.000;2023-04-03T11:58:23;6.03;;;1.23;;
66707;SDS011;53622;0.000;0.000;2023-04-03T12:00:59;3.17;;;1.30;;
66707;SDS011;53622;0.000;0.000;2023-04-03T12:12:39;2.00;;;1.20;;
66707;SDS011;53622;0.000;0.000;2023-04-03T12:15:23;3.90;;;1.05;;
66707;SDS011;53622;0.000;0.000;2023-04-03T12:24:35;1.90;;;1.00;;
66707;SDS011;53622;0.000;0.000;2023-04-03T12:27:13;3.88;;;0.93;;
66707;SDS011;53622;0.000;0.000;2023-04-03T12:29:55;1.75;;;0.90;;
66707;SDS011;53622;0.000;0.000;2023-04-03T12:32:51;2.03;;;1.00;;
66707;SDS011;53622;0.000;0.000;2023-04-03T12:35:40;2.45;;;0.68;;
66707;SDS011;53622;0.000;0.000;2023-04-03T12:38:23;1.27;;;0.73;;
66707;SDS011;53622;0.000;0.000;2023-04-03T12:41:08;3.08;;;0.95;;
66707;SDS011;53622;0.000;0.000;2023-04-03T12:44:12;1.05;;;0.80;;
66707;SDS011;53622;0.000;0.000;2023-04-03T12:46:53;1.83;;;1.00;;
66707;SDS011;53622;0.000;0.000;2023-04-03T12:49:30;1.55;;;0.90;;
66707;SDS011;53622;0.000;0.000;2023-04-03T12:52:04;1.40;;;0.80;;
66707;SDS011;53622;0.000;0.000;2023-04-03T12:54:45;2.35;;;0.95;;
66707;SDS011;53622;0.000;0.000;2023-04-03T12:57:17;1.25;;;0.90;;
66707;SDS011;53622;0.000;0.000;2023-04-03T12:59:48;1.98;;;0.80;;
66707;SDS011;53622;0.000;0.000;2023-04-03T13:02:20;1.83;;;0.90;;
66707;SDS011;53622;0.000;0.000;2023-04-03T13:04:54;1.50;;;0.70;;
66707;SDS011;53622;0.000;0.000;2023-04-03T13:07:27;1.38;;;0.90;;
66707;SDS011;53622;0.000;0.000;2023-04-03T13:10:02;4.13;;;0.85;;
66707;SDS011;53622;0.000;0.000;2023-04-03T13:12:45;2.35;;;0.80;;
66707;SDS011;53622;0.000;0.000;2023-04-03T13:15:16;6.25;;;0.95;;
66707;SDS011;53622;0.000;0.000;2023-04-03T13:17:48;1.75;;;0.65;;
66707;SDS011;53622;0.000;0.000;2023-04-03T13:20:28;2.40;;;0.77;;
66707;SDS011;53622;0.000;0.000;2023-04-03T13:22:59;0.60;;;0.60;;
66707;SDS011;53622;0.000;0.000;2023-04-03T13:25:32;2.67;;;0.90;;
66707;SDS011;53622;0.000;0.000;2023-04-03T13:28:04;1.73;;;0.73;;
66707;SDS011;53622;0.000;0.000;2023-04-03T13:30:40;1.08;;;0.60;;
66707;SDS011;53622;0.000;0.000;2023-04-03T13:33:23;2.90;;;0.70;;
66707;SDS011;53622;0.000;0.000;2023-04-03T13:35:57;1.60;;;0.75;;
66707;SDS011;53622;0.000;0.000;2023-04-03T13:38:37;5.75;;;0.70;;
66707;SDS011;53622;0.000;0.000;2023-04-03T13:41:21;2.35;;;0.90;;
66707;SDS011;53622;0.000;0.000;2023-04-03T13:43:53;2.75;;;1.00;;
66707;SDS011;53622;0.000;0.000;2023-04-03T13:46:36;1.65;;;0.70;;
66707;SDS011;53622;0.000;0.000;2023-04-03T13:49:17;2.15;;;0.90;;
66707;SDS011;53622;0.000;0.000;2023-04-03T13:51:51;2.25;;;1.05;;
66707;SDS011;53622;0.000;0.000;2023-04-03T13:54:51;1.50;;;0.80;;
66707;SDS011;53622;0.000;0.000;2023-04-03T13:57:22;3.30;;;0.70;;
66707;SDS011;53622;0.000;0.000;2023-04-03T13:59:53;1.65;;;0.75;;
66707;SDS011;53622;0.000;0.000;2023-04-03T14:02:29;3.10;;;1.00;;
66707;SDS011;53622;0.000;0.000;2023-04-03T14:05:17;1.98;;;0.75;;
66707;SDS011;53622;0.000;0.000;2023-04-03T14:47:01;3.03;;;2.20;;
66707;SDS011;53622;0.000;0.000;2023-04-03T14:54:05;2.80;;;1.42;;
66707;SDS011;53622;0.000;0.000;2023-04-03T14:56:39;1.85;;;1.23;;
66707;SDS011;53622;0.000;0.000;2023-04-03T14:59:09;2.95;;;1.10;;
66707;SDS011;53622;0.000;0.000;2023-04-03T15:01:40;2.10;;;1.02;;
66707;SDS011;53622;0.000;0.000;2023-04-03T15:04:12;2.03;;;1.23;;
66707;SDS011;53622;0.000;0.000;2023-04-03T15:06:42;2.05;;;0.80;;
66707;SDS011;53622;0.000;0.000;2023-04-03T15:09:16;1.15;;;0.80;;
66707;SDS011;53622;0.000;0.000;2023-04-03T15:11:48;1.88;;;0.80;;
66707;SDS011;53622;0.000;0.000;2023-04-03T15:14:19;1.80;;;0.73;;
66707;SDS011;53622;0.000;0.000;2023-04-03T15:17:03;2.20;;;0.90;;
66707;SDS011;53622;0.000;0.000;2023-04-03T15:19:36;2.63;;;0.80;;
66707;SDS011;53622;0.000;0.000;2023-04-03T15:22:06;3.15;;;0.70;;
66707;SDS011;53622;0.000;0.000;2023-04-03T15:24:41;2.40;;;0.70;;
66707;SDS011;53622;0.000;0.000;2023-04-03T15:27:11;1.35;;;0.80;;
66707;SDS011;53622;0.000;0.000;2023-04-03T15:29:42;0.73;;;0.70;;
66707;SDS011;53622;0.000;0.000;2023-04-03T15:32:12;1.15;;;0.70;;
66707;SDS011;53622;0.000;0.000;2023-04-03T15:34:43;1.90;;;0.73;;
66707;SDS011;53622;0.000;0.000;2023-04-03T15:37:12;1.35;;;0.80;;
66707;SDS011;53622;0.000;0.000;2023-04-03T15:39:42;2.13;;;0.85;;
66707;SDS011;53622;0.000;0.000;2023-04-03T15:42:11;0.70;;;0.50;;
66707;SDS011;53622;0.000;0.000;2023-04-03T15:44:40;0.80;;;0.68;;
66707;SDS011;53622;0.000;0.000;2023-04-03T15:47:10;1.02;;;0.60;;
66707;SDS011;53622;0.000;0.000;2023-04-03T15:49:40;0.52;;;0.50;;
66707;SDS011;53622;0.000;0.000;2023-04-03T15:52:11;2.50;;;0.70;;
66707;SDS011;53622;0.000;0.000;2023-04-03T15:54:40;1.48;;;0.80;;
66707;SDS011;53622;0.000;0.000;2023-04-03T15:57:09;0.50;;;0.40;;
66707;SDS011;53622;0.000;0.000;2023-04-03T15:59:39;2.17;;;0.60;;
66707;SDS011;53622;0.000;0.000;2023-04-03T16:02:08;0.43;;;0.43;;
66707;SDS011;53622;0.000;0.000;2023-04-03T16:04:41;0.50;;;0.50;;
66707;SDS011;53622;0.000;0.000;2023-04-03T16:07:11;1.83;;;0.60;;
66707;SDS011;53622;0.000;0.000;2023-04-03T16:09:41;0.80;;;0.60;;
66707;SDS011;53622;0.000;0.000;2023-04-03T16:12:10;1.05;;;0.60;;
66707;SDS011;53622;0.000;0.000;2023-04-03T16:14:39;1.33;;;0.50;;
66707;SDS011;53622;0.000;0.000;2023-04-03T16:17:09;2.08;;;0.68;;
66707;SDS011;53622;0.000;0.000;2023-04-03T16:19:39;3.10;;;0.60;;
66707;SDS011;53622;0.000;0.000;2023-04-03T16:22:09;2.70;;;0.80;;
66707;SDS011;53622;0.000;0.000;2023-04-03T16:24:40;1.65;;;0.63;;
66707;SDS011;53622;0.000;0.000;2023-04-03T16:27:09;1.95;;;0.70;;
66707;SDS011;53622;0.000;0.000;2023-04-03T16:29:38;1.15;;;0.70;;
66707;SDS011;53622;0.000;0.000;2023-04-03T16:32:08;1.02;;;0.57;;
66707;SDS011;53622;0.000;0.000;2023-04-03T16:34:37;3.42;;;0.60;;
66707;SDS011;53622;0.000;0.000;2023-04-03T16:37:08;3.05;;;0.60;;
66707;SDS011;53622;0.000;0.000;2023-04-03T16:39:39;2.03;;;0.52;;
66707;SDS011;53622;0.000;0.000;2023-04-03T16:42:09;3.40;;;0.80;;
66707;SDS011;53622;0.000;0.000;2023-04-03T16:44:38;4.50;;;0.70;;
66707;SDS011;53622;0.000;0.000;2023-04-03T16:47:08;2.53;;;1.13;;
66707;SDS011;53622;0.000;0.000;2023-04-03T16:49:38;4.13;;;1.23;;
66707;SDS011;53622;0.000;0.000;2023-04-03T16:52:07;3.47;;;1.30;;
66707;SDS011;53622;0.000;0.000;2023-04-03T16:54:37;3.42;;;1.30;;
66707;SDS011;53622;0.000;0.000;2023-04-03T16:57:08;6.22;;;1.00;;
66707;SDS011;53622;0.000;0.000;2023-04-03T16:59:37;3.65;;;0.82;;
66707;SDS011;53622;0.000;0.000;2023-04-03T17:02:08;2.58;;;0.98;;